Oosterbeek, Netherlands
Current Conditions -  °F | °C
As of 9:55 PM on Thursday 27 Nov 2014 (Local Time) from EHDL Reporting Station
Haze Haze  
Wind Chill: 37°   Ceiling: 600
Heat Index: 43°   Visibility: 2.6mi
Dew Point: 41°   Wind: 9mph
Humidity: 93%   Direction: 100°E
Pressure: 29.74"   Gusts: NA
Location:  51.99°N, 5.85°E
Report Text: EHDL 272055Z AUTO 10008KT 4200 BR FEW005 OVC006 06/05 Q1007 YLO
Loading
Personal Weather Stations






























Interactive Weather Map New forecast layout! Learn more

10-Day Weather Forecast

Advertisements
Track Severe Weather on mobile